sensor_id;sensor_type;location;lat;lon;timestamp;P1;durP1;ratioP1;P2;durP2;ratioP2
703;SDS011;335;48.694;9.120;2024-01-30T00:02:35;5.40;;;4.90;;
703;SDS011;335;48.694;9.120;2024-01-30T00:05:21;5.25;;;4.95;;
703;SDS011;335;48.694;9.120;2024-01-30T00:08:07;4.95;;;4.55;;
703;SDS011;335;48.694;9.120;2024-01-30T00:10:52;7.22;;;4.70;;
703;SDS011;335;48.694;9.120;2024-01-30T00:13:38;5.20;;;4.73;;
703;SDS011;335;48.694;9.120;2024-01-30T00:16:23;6.67;;;5.20;;
703;SDS011;335;48.694;9.120;2024-01-30T00:19:09;4.70;;;4.40;;
703;SDS011;335;48.694;9.120;2024-01-30T00:21:54;5.27;;;4.97;;
703;SDS011;335;48.694;9.120;2024-01-30T00:24:40;4.87;;;4.47;;
703;SDS011;335;48.694;9.120;2024-01-30T00:27:25;4.57;;;4.28;;
703;SDS011;335;48.694;9.120;2024-01-30T00:30:12;5.30;;;4.80;;
703;SDS011;335;48.694;9.120;2024-01-30T00:32:57;5.10;;;4.70;;
703;SDS011;335;48.694;9.120;2024-01-30T00:35:43;5.10;;;4.70;;
703;SDS011;335;48.694;9.120;2024-01-30T00:38:28;5.30;;;4.80;;
703;SDS011;335;48.694;9.120;2024-01-30T00:41:13;4.45;;;4.15;;
703;SDS011;335;48.694;9.120;2024-01-30T00:43:59;4.40;;;4.00;;
703;SDS011;335;48.694;9.120;2024-01-30T00:46:44;5.68;;;5.18;;
703;SDS011;335;48.694;9.120;2024-01-30T00:49:30;4.78;;;4.40;;
703;SDS011;335;48.694;9.120;2024-01-30T00:52:16;4.93;;;4.50;;
703;SDS011;335;48.694;9.120;2024-01-30T00:55:01;5.00;;;4.60;;
703;SDS011;335;48.694;9.120;2024-01-30T00:57:47;4.67;;;4.27;;
703;SDS011;335;48.694;9.120;2024-01-30T01:00:33;4.38;;;4.10;;
703;SDS011;335;48.694;9.120;2024-01-30T01:03:18;5.93;;;5.43;;
703;SDS011;335;48.694;9.120;2024-01-30T01:06:03;4.50;;;4.30;;
703;SDS011;335;48.694;9.120;2024-01-30T01:08:49;4.78;;;4.30;;
703;SDS011;335;48.694;9.120;2024-01-30T01:11:34;4.20;;;3.97;;
703;SDS011;335;48.694;9.120;2024-01-30T01:14:20;4.47;;;4.15;;
703;SDS011;335;48.694;9.120;2024-01-30T01:17:05;4.40;;;4.10;;
703;SDS011;335;48.694;9.120;2024-01-30T01:19:51;4.63;;;4.25;;
703;SDS011;335;48.694;9.120;2024-01-30T01:22:37;5.17;;;4.77;;
703;SDS011;335;48.694;9.120;2024-01-30T01:25:23;5.40;;;4.90;;
703;SDS011;335;48.694;9.120;2024-01-30T01:28:09;4.85;;;4.45;;
703;SDS011;335;48.694;9.120;2024-01-30T01:30:54;4.37;;;3.90;;
703;SDS011;335;48.694;9.120;2024-01-30T01:33:44;4.75;;;4.45;;
703;SDS011;335;48.694;9.120;2024-01-30T01:36:29;5.03;;;4.53;;
703;SDS011;335;48.694;9.120;2024-01-30T01:39:14;4.47;;;4.07;;
703;SDS011;335;48.694;9.120;2024-01-30T01:42:00;4.23;;;3.93;;
703;SDS011;335;48.694;9.120;2024-01-30T01:44:45;4.07;;;3.77;;
703;SDS011;335;48.694;9.120;2024-01-30T01:47:31;4.87;;;4.57;;
703;SDS011;335;48.694;9.120;2024-01-30T01:50:16;4.45;;;4.05;;
703;SDS011;335;48.694;9.120;2024-01-30T01:53:03;4.93;;;4.50;;
703;SDS011;335;48.694;9.120;2024-01-30T01:55:50;5.30;;;4.90;;
703;SDS011;335;48.694;9.120;2024-01-30T01:58:37;5.15;;;4.70;;
703;SDS011;335;48.694;9.120;2024-01-30T02:01:23;5.43;;;5.00;;
703;SDS011;335;48.694;9.120;2024-01-30T02:04:09;4.80;;;4.40;;
703;SDS011;335;48.694;9.120;2024-01-30T02:06:54;4.60;;;4.20;;
703;SDS011;335;48.694;9.120;2024-01-30T02:09:40;5.20;;;4.88;;
703;SDS011;335;48.694;9.120;2024-01-30T02:12:25;4.55;;;4.25;;
703;SDS011;335;48.694;9.120;2024-01-30T02:15:13;4.35;;;4.05;;
703;SDS011;335;48.694;9.120;2024-01-30T02:17:58;4.88;;;4.57;;
703;SDS011;335;48.694;9.120;2024-01-30T02:20:44;7.13;;;4.65;;
703;SDS011;335;48.694;9.120;2024-01-30T02:23:29;4.60;;;4.20;;
703;SDS011;335;48.694;9.120;2024-01-30T02:26:15;4.57;;;4.35;;
703;SDS011;335;48.694;9.120;2024-01-30T02:29:01;5.38;;;4.38;;
703;SDS011;335;48.694;9.120;2024-01-30T02:31:46;4.57;;;4.28;;
703;SDS011;335;48.694;9.120;2024-01-30T02:34:31;4.60;;;4.20;;
703;SDS011;335;48.694;9.120;2024-01-30T02:37:17;4.20;;;3.90;;
703;SDS011;335;48.694;9.120;2024-01-30T02:40:02;4.78;;;4.47;;
703;SDS011;335;48.694;9.120;2024-01-30T02:42:47;4.15;;;3.85;;
703;SDS011;335;48.694;9.120;2024-01-30T02:45:33;5.05;;;4.57;;
703;SDS011;335;48.694;9.120;2024-01-30T02:48:18;5.05;;;4.65;;
703;SDS011;335;48.694;9.120;2024-01-30T02:51:03;4.07;;;3.78;;
703;SDS011;335;48.694;9.120;2024-01-30T02:53:49;4.22;;;3.90;;
703;SDS011;335;48.694;9.120;2024-01-30T02:56:34;4.45;;;3.53;;
703;SDS011;335;48.694;9.120;2024-01-30T02:59:19;4.65;;;4.30;;
703;SDS011;335;48.694;9.120;2024-01-30T03:02:05;4.00;;;3.70;;
703;SDS011;335;48.694;9.120;2024-01-30T03:04:50;3.83;;;3.53;;
703;SDS011;335;48.694;9.120;2024-01-30T03:07:35;3.40;;;3.20;;
703;SDS011;335;48.694;9.120;2024-01-30T03:10:21;3.80;;;3.60;;
703;SDS011;335;48.694;9.120;2024-01-30T03:13:06;4.05;;;3.75;;
703;SDS011;335;48.694;9.120;2024-01-30T03:15:51;3.25;;;3.05;;
703;SDS011;335;48.694;9.120;2024-01-30T03:18:37;3.80;;;3.53;;
703;SDS011;335;48.694;9.120;2024-01-30T03:21:22;4.38;;;4.07;;
703;SDS011;335;48.694;9.120;2024-01-30T03:24:07;3.80;;;3.60;;
703;SDS011;335;48.694;9.120;2024-01-30T03:26:54;4.05;;;3.65;;
703;SDS011;335;48.694;9.120;2024-01-30T03:29:39;3.92;;;3.63;;
703;SDS011;335;48.694;9.120;2024-01-30T03:32:24;4.47;;;4.07;;
703;SDS011;335;48.694;9.120;2024-01-30T03:35:10;4.13;;;3.72;;
703;SDS011;335;48.694;9.120;2024-01-30T03:37:55;4.07;;;3.55;;
703;SDS011;335;48.694;9.120;2024-01-30T03:40:40;4.00;;;3.70;;
703;SDS011;335;48.694;9.120;2024-01-30T03:43:26;4.60;;;4.10;;
703;SDS011;335;48.694;9.120;2024-01-30T03:46:11;4.15;;;3.47;;
703;SDS011;335;48.694;9.120;2024-01-30T03:48:57;4.40;;;4.03;;
703;SDS011;335;48.694;9.120;2024-01-30T03:51:42;3.42;;;3.17;;
703;SDS011;335;48.694;9.120;2024-01-30T03:54:28;3.88;;;3.67;;
703;SDS011;335;48.694;9.120;2024-01-30T03:57:13;3.95;;;3.65;;
703;SDS011;335;48.694;9.120;2024-01-30T03:59:58;4.13;;;3.72;;
703;SDS011;335;48.694;9.120;2024-01-30T04:02:44;4.40;;;4.00;;
703;SDS011;335;48.694;9.120;2024-01-30T04:05:30;4.22;;;3.92;;
703;SDS011;335;48.694;9.120;2024-01-30T04:08:15;3.85;;;3.55;;
703;SDS011;335;48.694;9.120;2024-01-30T04:11:04;3.60;;;3.40;;
703;SDS011;335;48.694;9.120;2024-01-30T04:13:50;3.63;;;3.40;;
703;SDS011;335;48.694;9.120;2024-01-30T04:16:36;4.57;;;4.28;;
703;SDS011;335;48.694;9.120;2024-01-30T04:19:21;4.25;;;3.95;;
703;SDS011;335;48.694;9.120;2024-01-30T04:22:07;3.90;;;3.60;;
703;SDS011;335;48.694;9.120;2024-01-30T04:24:52;4.20;;;3.63;;
703;SDS011;335;48.694;9.120;2024-01-30T04:27:37;4.07;;;3.78;;
703;SDS011;335;48.694;9.120;2024-01-30T04:30:22;4.65;;;4.32;;
703;SDS011;335;48.694;9.120;2024-01-30T04:33:08;3.90;;;3.63;;
703;SDS011;335;48.694;9.120;2024-01-30T04:35:53;4.63;;;4.22;;
703;SDS011;335;48.694;9.120;2024-01-30T04:38:38;5.07;;;4.68;;
703;SDS011;335;48.694;9.120;2024-01-30T04:41:24;4.90;;;4.60;;
703;SDS011;335;48.694;9.120;2024-01-30T04:44:11;4.50;;;4.10;;
703;SDS011;335;48.694;9.120;2024-01-30T04:46:56;4.53;;;4.13;;
703;SDS011;335;48.694;9.120;2024-01-30T04:49:44;4.07;;;3.80;;
703;SDS011;335;48.694;9.120;2024-01-30T04:52:29;3.97;;;3.78;;
703;SDS011;335;48.694;9.120;2024-01-30T04:55:14;4.60;;;4.30;;
703;SDS011;335;48.694;9.120;2024-01-30T04:58:00;4.80;;;4.47;;
703;SDS011;335;48.694;9.120;2024-01-30T05:00:46;4.80;;;4.43;;
703;SDS011;335;48.694;9.120;2024-01-30T05:03:36;4.38;;;4.05;;
703;SDS011;335;48.694;9.120;2024-01-30T05:06:25;5.50;;;5.00;;
703;SDS011;335;48.694;9.120;2024-01-30T05:09:10;4.00;;;3.75;;
703;SDS011;335;48.694;9.120;2024-01-30T05:11:56;5.32;;;4.85;;
703;SDS011;335;48.694;9.120;2024-01-30T05:14:41;4.68;;;4.35;;
703;SDS011;335;48.694;9.120;2024-01-30T05:17:27;5.20;;;4.78;;
703;SDS011;335;48.694;9.120;2024-01-30T05:20:12;4.75;;;4.30;;
703;SDS011;335;48.694;9.120;2024-01-30T05:22:57;4.50;;;4.20;;
703;SDS011;335;48.694;9.120;2024-01-30T05:25:43;4.25;;;3.85;;
703;SDS011;335;48.694;9.120;2024-01-30T05:28:29;4.05;;;3.75;;
703;SDS011;335;48.694;9.120;2024-01-30T05:31:15;4.78;;;4.38;;
703;SDS011;335;48.694;9.120;2024-01-30T05:34:00;6.38;;;5.78;;
703;SDS011;335;48.694;9.120;2024-01-30T05:36:47;6.53;;;5.88;;
703;SDS011;335;48.694;9.120;2024-01-30T05:39:32;6.32;;;5.43;;
703;SDS011;335;48.694;9.120;2024-01-30T05:42:18;11.15;;;6.93;;
703;SDS011;335;48.694;9.120;2024-01-30T05:45:03;16.15;;;8.73;;
703;SDS011;335;48.694;9.120;2024-01-30T05:47:50;7.53;;;6.45;;
703;SDS011;335;48.694;9.120;2024-01-30T05:50:35;7.60;;;6.35;;
703;SDS011;335;48.694;9.120;2024-01-30T05:53:21;10.43;;;7.55;;
703;SDS011;335;48.694;9.120;2024-01-30T05:56:06;13.73;;;7.65;;
703;SDS011;335;48.694;9.120;2024-01-30T05:58:51;9.50;;;6.65;;
703;SDS011;335;48.694;9.120;2024-01-30T06:01:37;8.38;;;6.60;;
703;SDS011;335;48.694;9.120;2024-01-30T06:04:23;7.72;;;6.75;;
703;SDS011;335;48.694;9.120;2024-01-30T06:07:08;5.72;;;5.25;;
703;SDS011;335;48.694;9.120;2024-01-30T06:09:53;7.47;;;5.78;;
703;SDS011;335;48.694;9.120;2024-01-30T06:12:39;7.93;;;6.55;;
703;SDS011;335;48.694;9.120;2024-01-30T06:15:24;7.20;;;6.40;;
703;SDS011;335;48.694;9.120;2024-01-30T06:18:10;7.22;;;6.53;;
703;SDS011;335;48.694;9.120;2024-01-30T06:20:56;7.15;;;6.45;;
703;SDS011;335;48.694;9.120;2024-01-30T06:23:41;7.05;;;6.45;;
703;SDS011;335;48.694;9.120;2024-01-30T06:26:26;5.38;;;4.95;;
703;SDS011;335;48.694;9.120;2024-01-30T06:29:12;5.10;;;4.65;;
703;SDS011;335;48.694;9.120;2024-01-30T06:31:57;4.55;;;4.18;;
703;SDS011;335;48.694;9.120;2024-01-30T06:34:42;5.07;;;4.68;;
703;SDS011;335;48.694;9.120;2024-01-30T06:37:29;5.30;;;4.90;;
703;SDS011;335;48.694;9.120;2024-01-30T06:40:14;5.00;;;4.70;;
703;SDS011;335;48.694;9.120;2024-01-30T06:42:59;4.68;;;4.28;;
703;SDS011;335;48.694;9.120;2024-01-30T06:45:46;5.13;;;4.65;;
703;SDS011;335;48.694;9.120;2024-01-30T06:48:31;4.30;;;3.90;;
703;SDS011;335;48.694;9.120;2024-01-30T06:51:17;4.22;;;3.80;;
703;SDS011;335;48.694;9.120;2024-01-30T06:54:02;3.85;;;3.65;;
703;SDS011;335;48.694;9.120;2024-01-30T06:56:48;5.97;;;4.93;;
703;SDS011;335;48.694;9.120;2024-01-30T06:59:33;5.57;;;4.95;;
703;SDS011;335;48.694;9.120;2024-01-30T07:02:18;4.40;;;4.00;;
703;SDS011;335;48.694;9.120;2024-01-30T07:05:04;4.10;;;3.80;;
703;SDS011;335;48.694;9.120;2024-01-30T07:07:49;4.60;;;4.20;;
703;SDS011;335;48.694;9.120;2024-01-30T07:10:35;4.10;;;3.80;;
703;SDS011;335;48.694;9.120;2024-01-30T07:13:20;3.90;;;3.60;;
703;SDS011;335;48.694;9.120;2024-01-30T07:16:05;4.72;;;4.32;;
703;SDS011;335;48.694;9.120;2024-01-30T07:18:51;4.40;;;4.10;;
703;SDS011;335;48.694;9.120;2024-01-30T07:21:37;9.77;;;6.15;;
703;SDS011;335;48.694;9.120;2024-01-30T07:24:23;5.82;;;5.32;;
703;SDS011;335;48.694;9.120;2024-01-30T07:27:09;6.20;;;5.60;;
703;SDS011;335;48.694;9.120;2024-01-30T07:29:54;4.93;;;4.50;;
703;SDS011;335;48.694;9.120;2024-01-30T07:32:43;43.22;;;11.10;;
703;SDS011;335;48.694;9.120;2024-01-30T07:35:28;15.77;;;6.70;;
703;SDS011;335;48.694;9.120;2024-01-30T07:38:13;7.88;;;5.35;;
703;SDS011;335;48.694;9.120;2024-01-30T07:40:59;54.88;;;13.43;;
703;SDS011;335;48.694;9.120;2024-01-30T07:43:44;26.02;;;7.70;;
703;SDS011;335;48.694;9.120;2024-01-30T07:46:29;8.75;;;5.00;;
703;SDS011;335;48.694;9.120;2024-01-30T07:49:15;15.82;;;5.40;;
703;SDS011;335;48.694;9.120;2024-01-30T07:52:00;6.00;;;4.65;;
703;SDS011;335;48.694;9.120;2024-01-30T07:54:46;7.85;;;5.10;;
703;SDS011;335;48.694;9.120;2024-01-30T07:57:31;4.97;;;4.57;;
703;SDS011;335;48.694;9.120;2024-01-30T08:00:16;5.32;;;4.90;;
703;SDS011;335;48.694;9.120;2024-01-30T08:03:02;4.22;;;3.92;;
703;SDS011;335;48.694;9.120;2024-01-30T08:05:50;3.97;;;3.60;;
703;SDS011;335;48.694;9.120;2024-01-30T08:08:35;4.78;;;4.32;;
703;SDS011;335;48.694;9.120;2024-01-30T08:11:20;4.70;;;4.30;;
703;SDS011;335;48.694;9.120;2024-01-30T08:14:10;4.10;;;3.80;;
703;SDS011;335;48.694;9.120;2024-01-30T08:16:56;5.23;;;4.73;;
703;SDS011;335;48.694;9.120;2024-01-30T08:19:41;5.80;;;5.37;;
703;SDS011;335;48.694;9.120;2024-01-30T08:22:26;4.17;;;3.87;;
703;SDS011;335;48.694;9.120;2024-01-30T08:25:11;4.17;;;3.80;;
703;SDS011;335;48.694;9.120;2024-01-30T08:27:57;3.30;;;3.07;;
703;SDS011;335;48.694;9.120;2024-01-30T08:30:43;3.97;;;3.57;;
703;SDS011;335;48.694;9.120;2024-01-30T08:33:28;3.90;;;3.60;;
703;SDS011;335;48.694;9.120;2024-01-30T08:36:14;17.47;;;5.00;;
703;SDS011;335;48.694;9.120;2024-01-30T08:38:59;47.60;;;8.50;;
703;SDS011;335;48.694;9.120;2024-01-30T08:41:44;25.60;;;7.60;;
703;SDS011;335;48.694;9.120;2024-01-30T08:44:30;22.27;;;6.53;;
703;SDS011;335;48.694;9.120;2024-01-30T08:47:15;4.07;;;3.77;;
703;SDS011;335;48.694;9.120;2024-01-30T08:50:02;4.20;;;3.90;;
703;SDS011;335;48.694;9.120;2024-01-30T08:52:47;3.33;;;3.13;;
703;SDS011;335;48.694;9.120;2024-01-30T08:55:32;3.77;;;3.40;;
703;SDS011;335;48.694;9.120;2024-01-30T08:58:18;4.10;;;3.80;;
703;SDS011;335;48.694;9.120;2024-01-30T09:01:04;4.23;;;3.90;;
703;SDS011;335;48.694;9.120;2024-01-30T09:03:50;3.50;;;3.27;;
703;SDS011;335;48.694;9.120;2024-01-30T09:06:36;4.37;;;4.00;;
703;SDS011;335;48.694;9.120;2024-01-30T09:09:22;3.40;;;3.20;;
703;SDS011;335;48.694;9.120;2024-01-30T09:12:08;3.53;;;3.33;;
703;SDS011;335;48.694;9.120;2024-01-30T09:14:56;3.93;;;3.63;;
703;SDS011;335;48.694;9.120;2024-01-30T09:17:41;4.00;;;3.70;;
703;SDS011;335;48.694;9.120;2024-01-30T09:20:27;4.80;;;4.50;;
703;SDS011;335;48.694;9.120;2024-01-30T09:23:12;5.93;;;4.30;;
703;SDS011;335;48.694;9.120;2024-01-30T09:25:57;4.07;;;3.80;;
703;SDS011;335;48.694;9.120;2024-01-30T09:28:43;3.73;;;3.53;;
703;SDS011;335;48.694;9.120;2024-01-30T09:31:28;3.90;;;3.13;;
703;SDS011;335;48.694;9.120;2024-01-30T09:34:13;4.77;;;3.10;;
703;SDS011;335;48.694;9.120;2024-01-30T09:36:59;3.70;;;3.50;;
703;SDS011;335;48.694;9.120;2024-01-30T09:39:45;6.33;;;3.20;;
703;SDS011;335;48.694;9.120;2024-01-30T09:42:34;3.07;;;2.87;;
703;SDS011;335;48.694;9.120;2024-01-30T09:45:24;3.73;;;3.40;;
703;SDS011;335;48.694;9.120;2024-01-30T09:48:09;3.03;;;2.83;;
703;SDS011;335;48.694;9.120;2024-01-30T09:50:56;2.90;;;2.70;;
703;SDS011;335;48.694;9.120;2024-01-30T09:53:42;2.90;;;2.60;;
703;SDS011;335;48.694;9.120;2024-01-30T09:56:29;4.33;;;3.70;;
703;SDS011;335;48.694;9.120;2024-01-30T09:59:14;3.30;;;2.70;;
703;SDS011;335;48.694;9.120;2024-01-30T10:02:00;3.17;;;2.97;;
703;SDS011;335;48.694;9.120;2024-01-30T10:04:49;3.00;;;2.40;;
703;SDS011;335;48.694;9.120;2024-01-30T10:07:35;2.57;;;2.37;;
703;SDS011;335;48.694;9.120;2024-01-30T10:10:23;3.33;;;2.77;;
703;SDS011;335;48.694;9.120;2024-01-30T10:13:09;3.20;;;2.80;;
703;SDS011;335;48.694;9.120;2024-01-30T10:15:55;3.13;;;2.93;;
703;SDS011;335;48.694;9.120;2024-01-30T10:18:41;7.67;;;2.60;;
703;SDS011;335;48.694;9.120;2024-01-30T10:21:26;3.17;;;2.70;;
703;SDS011;335;48.694;9.120;2024-01-30T10:24:12;2.63;;;2.43;;
703;SDS011;335;48.694;9.120;2024-01-30T10:26:58;2.53;;;2.43;;
703;SDS011;335;48.694;9.120;2024-01-30T10:29:48;2.40;;;2.20;;
703;SDS011;335;48.694;9.120;2024-01-30T10:32:33;1.70;;;1.60;;
703;SDS011;335;48.694;9.120;2024-01-30T10:35:19;4.80;;;2.10;;
703;SDS011;335;48.694;9.120;2024-01-30T10:38:04;2.30;;;2.20;;
703;SDS011;335;48.694;9.120;2024-01-30T10:40:52;1.80;;;1.70;;
703;SDS011;335;48.694;9.120;2024-01-30T10:43:41;2.83;;;1.90;;
703;SDS011;335;48.694;9.120;2024-01-30T10:46:32;4.23;;;2.07;;
703;SDS011;335;48.694;9.120;2024-01-30T10:49:19;1.93;;;1.83;;
703;SDS011;335;48.694;9.120;2024-01-30T10:52:05;1.97;;;1.87;;
703;SDS011;335;48.694;9.120;2024-01-30T10:54:51;2.50;;;2.40;;
703;SDS011;335;48.694;9.120;2024-01-30T10:57:37;1.90;;;1.80;;
703;SDS011;335;48.694;9.120;2024-01-30T11:00:23;2.57;;;2.30;;
703;SDS011;335;48.694;9.120;2024-01-30T11:03:09;4.87;;;2.87;;
703;SDS011;335;48.694;9.120;2024-01-30T11:05:58;1.67;;;1.57;;
703;SDS011;335;48.694;9.120;2024-01-30T11:08:45;1.90;;;1.80;;
703;SDS011;335;48.694;9.120;2024-01-30T11:11:30;2.50;;;2.30;;
703;SDS011;335;48.694;9.120;2024-01-30T11:14:16;1.80;;;1.70;;
703;SDS011;335;48.694;9.120;2024-01-30T11:17:01;2.33;;;2.13;;
703;SDS011;335;48.694;9.120;2024-01-30T11:19:49;2.03;;;1.93;;
703;SDS011;335;48.694;9.120;2024-01-30T11:22:37;2.93;;;1.93;;
703;SDS011;335;48.694;9.120;2024-01-30T11:25:22;2.30;;;2.20;;
703;SDS011;335;48.694;9.120;2024-01-30T11:28:14;2.00;;;1.90;;
703;SDS011;335;48.694;9.120;2024-01-30T11:31:04;2.13;;;1.93;;
703;SDS011;335;48.694;9.120;2024-01-30T11:33:52;1.80;;;1.70;;
703;SDS011;335;48.694;9.120;2024-01-30T11:36:38;5.33;;;3.33;;
703;SDS011;335;48.694;9.120;2024-01-30T11:39:29;2.23;;;2.07;;
703;SDS011;335;48.694;9.120;2024-01-30T11:42:14;2.70;;;1.90;;
703;SDS011;335;48.694;9.120;2024-01-30T11:45:00;3.20;;;3.00;;
703;SDS011;335;48.694;9.120;2024-01-30T11:47:47;4.33;;;3.40;;
703;SDS011;335;48.694;9.120;2024-01-30T11:50:33;2.77;;;2.67;;
703;SDS011;335;48.694;9.120;2024-01-30T11:53:18;1.90;;;1.80;;
703;SDS011;335;48.694;9.120;2024-01-30T11:56:05;2.50;;;2.40;;
703;SDS011;335;48.694;9.120;2024-01-30T11:58:51;2.20;;;2.00;;
703;SDS011;335;48.694;9.120;2024-01-30T12:01:37;2.03;;;1.93;;
703;SDS011;335;48.694;9.120;2024-01-30T12:04:22;2.30;;;2.03;;
703;SDS011;335;48.694;9.120;2024-01-30T12:07:07;2.30;;;2.20;;
703;SDS011;335;48.694;9.120;2024-01-30T12:09:53;2.87;;;2.67;;
703;SDS011;335;48.694;9.120;2024-01-30T12:12:39;2.00;;;1.90;;
703;SDS011;335;48.694;9.120;2024-01-30T12:15:26;2.63;;;2.43;;
703;SDS011;335;48.694;9.120;2024-01-30T12:18:12;2.60;;;1.70;;
703;SDS011;335;48.694;9.120;2024-01-30T12:20:58;2.30;;;2.20;;
703;SDS011;335;48.694;9.120;2024-01-30T12:23:44;3.20;;;2.40;;
703;SDS011;335;48.694;9.120;2024-01-30T12:26:30;2.10;;;2.00;;
703;SDS011;335;48.694;9.120;2024-01-30T12:29:15;2.23;;;2.13;;
703;SDS011;335;48.694;9.120;2024-01-30T12:32:00;2.67;;;2.33;;
703;SDS011;335;48.694;9.120;2024-01-30T12:34:46;2.60;;;2.40;;
703;SDS011;335;48.694;9.120;2024-01-30T12:37:31;7.57;;;2.30;;
703;SDS011;335;48.694;9.120;2024-01-30T12:40:17;2.47;;;2.30;;
703;SDS011;335;48.694;9.120;2024-01-30T12:43:03;1.97;;;1.87;;
703;SDS011;335;48.694;9.120;2024-01-30T12:45:49;1.90;;;1.80;;
703;SDS011;335;48.694;9.120;2024-01-30T12:48:35;3.87;;;2.37;;
703;SDS011;335;48.694;9.120;2024-01-30T12:51:20;1.80;;;1.70;;
703;SDS011;335;48.694;9.120;2024-01-30T12:54:06;2.23;;;1.90;;
703;SDS011;335;48.694;9.120;2024-01-30T12:56:51;2.53;;;2.17;;
703;SDS011;335;48.694;9.120;2024-01-30T12:59:36;1.90;;;1.80;;
703;SDS011;335;48.694;9.120;2024-01-30T13:02:22;2.17;;;1.97;;
703;SDS011;335;48.694;9.120;2024-01-30T13:05:08;2.30;;;2.10;;
703;SDS011;335;48.694;9.120;2024-01-30T13:07:53;1.97;;;1.87;;
703;SDS011;335;48.694;9.120;2024-01-30T13:10:39;2.50;;;2.17;;
703;SDS011;335;48.694;9.120;2024-01-30T13:13:24;1.70;;;1.60;;
703;SDS011;335;48.694;9.120;2024-01-30T13:16:09;1.90;;;1.80;;
703;SDS011;335;48.694;9.120;2024-01-30T13:18:55;2.13;;;2.00;;
703;SDS011;335;48.694;9.120;2024-01-30T13:21:40;4.40;;;2.03;;
703;SDS011;335;48.694;9.120;2024-01-30T13:24:25;2.67;;;2.57;;
703;SDS011;335;48.694;9.120;2024-01-30T13:27:11;5.23;;;1.83;;
703;SDS011;335;48.694;9.120;2024-01-30T13:29:57;2.30;;;2.00;;
703;SDS011;335;48.694;9.120;2024-01-30T13:32:42;1.97;;;1.87;;
703;SDS011;335;48.694;9.120;2024-01-30T13:35:29;2.07;;;1.90;;
703;SDS011;335;48.694;9.120;2024-01-30T13:38:14;3.30;;;1.60;;
703;SDS011;335;48.694;9.120;2024-01-30T13:41:00;2.70;;;2.50;;
703;SDS011;335;48.694;9.120;2024-01-30T13:43:48;2.30;;;2.07;;
703;SDS011;335;48.694;9.120;2024-01-30T13:46:34;2.60;;;2.10;;
703;SDS011;335;48.694;9.120;2024-01-30T13:49:19;2.30;;;2.10;;
703;SDS011;335;48.694;9.120;2024-01-30T13:52:05;2.23;;;2.03;;
703;SDS011;335;48.694;9.120;2024-01-30T13:54:50;2.27;;;2.17;;
703;SDS011;335;48.694;9.120;2024-01-30T13:57:36;2.00;;;1.90;;
703;SDS011;335;48.694;9.120;2024-01-30T14:00:22;8.13;;;2.30;;
703;SDS011;335;48.694;9.120;2024-01-30T14:03:08;2.00;;;1.90;;
703;SDS011;335;48.694;9.120;2024-01-30T14:05:53;2.13;;;2.03;;
703;SDS011;335;48.694;9.120;2024-01-30T14:08:38;2.80;;;2.60;;
703;SDS011;335;48.694;9.120;2024-01-30T14:11:25;2.03;;;1.93;;
703;SDS011;335;48.694;9.120;2024-01-30T14:14:11;2.50;;;2.40;;
703;SDS011;335;48.694;9.120;2024-01-30T14:16:56;2.70;;;2.50;;
703;SDS011;335;48.694;9.120;2024-01-30T14:19:41;2.63;;;2.43;;
703;SDS011;335;48.694;9.120;2024-01-30T14:22:27;2.17;;;2.07;;
703;SDS011;335;48.694;9.120;2024-01-30T14:25:12;2.10;;;2.00;;
703;SDS011;335;48.694;9.120;2024-01-30T14:27:57;2.27;;;2.00;;
703;SDS011;335;48.694;9.120;2024-01-30T14:30:43;3.43;;;2.57;;
703;SDS011;335;48.694;9.120;2024-01-30T14:33:28;2.87;;;2.67;;
703;SDS011;335;48.694;9.120;2024-01-30T14:36:13;2.20;;;2.10;;
703;SDS011;335;48.694;9.120;2024-01-30T14:38:59;2.27;;;2.17;;
703;SDS011;335;48.694;9.120;2024-01-30T14:41:44;2.30;;;2.10;;
703;SDS011;335;48.694;9.120;2024-01-30T14:44:29;2.07;;;1.97;;
703;SDS011;335;48.694;9.120;2024-01-30T14:47:15;2.40;;;2.30;;
703;SDS011;335;48.694;9.120;2024-01-30T14:50:01;2.30;;;2.10;;
703;SDS011;335;48.694;9.120;2024-01-30T14:52:46;3.97;;;2.30;;
703;SDS011;335;48.694;9.120;2024-01-30T14:55:32;2.90;;;2.70;;
703;SDS011;335;48.694;9.120;2024-01-30T14:58:17;2.60;;;2.40;;
703;SDS011;335;48.694;9.120;2024-01-30T15:01:03;3.03;;;2.53;;
703;SDS011;335;48.694;9.120;2024-01-30T15:03:48;4.07;;;2.10;;
703;SDS011;335;48.694;9.120;2024-01-30T15:06:33;1.93;;;1.73;;
703;SDS011;335;48.694;9.120;2024-01-30T15:09:19;3.63;;;2.20;;
703;SDS011;335;48.694;9.120;2024-01-30T15:12:06;2.77;;;2.20;;
703;SDS011;335;48.694;9.120;2024-01-30T15:14:51;3.10;;;3.00;;
703;SDS011;335;48.694;9.120;2024-01-30T15:17:37;3.03;;;2.83;;
703;SDS011;335;48.694;9.120;2024-01-30T15:20:23;3.30;;;3.00;;
703;SDS011;335;48.694;9.120;2024-01-30T15:23:09;3.27;;;3.07;;
703;SDS011;335;48.694;9.120;2024-01-30T15:25:54;2.77;;;2.57;;
703;SDS011;335;48.694;9.120;2024-01-30T15:28:39;2.90;;;2.70;;
703;SDS011;335;48.694;9.120;2024-01-30T15:31:25;3.00;;;2.80;;
703;SDS011;335;48.694;9.120;2024-01-30T15:34:10;3.03;;;2.73;;
703;SDS011;335;48.694;9.120;2024-01-30T15:36:55;3.20;;;3.00;;
703;SDS011;335;48.694;9.120;2024-01-30T15:39:41;2.70;;;2.60;;
703;SDS011;335;48.694;9.120;2024-01-30T15:42:26;3.27;;;3.17;;
703;SDS011;335;48.694;9.120;2024-01-30T15:45:11;4.27;;;3.27;;
703;SDS011;335;48.694;9.120;2024-01-30T15:47:57;3.63;;;3.27;;
703;SDS011;335;48.694;9.120;2024-01-30T15:50:43;3.27;;;2.97;;
703;SDS011;335;48.694;9.120;2024-01-30T15:53:28;3.37;;;3.10;;
703;SDS011;335;48.694;9.120;2024-01-30T15:56:14;4.07;;;3.77;;
703;SDS011;335;48.694;9.120;2024-01-30T15:58:59;5.70;;;3.40;;
703;SDS011;335;48.694;9.120;2024-01-30T16:01:44;5.77;;;4.50;;
703;SDS011;335;48.694;9.120;2024-01-30T16:04:33;8.83;;;5.53;;
703;SDS011;335;48.694;9.120;2024-01-30T16:07:19;8.40;;;6.60;;
703;SDS011;335;48.694;9.120;2024-01-30T16:10:04;8.93;;;8.00;;
703;SDS011;335;48.694;9.120;2024-01-30T16:12:50;7.20;;;6.50;;
703;SDS011;335;48.694;9.120;2024-01-30T16:15:35;8.43;;;7.63;;
703;SDS011;335;48.694;9.120;2024-01-30T16:18:21;10.90;;;8.70;;
703;SDS011;335;48.694;9.120;2024-01-30T16:21:06;9.63;;;8.30;;
703;SDS011;335;48.694;9.120;2024-01-30T16:23:53;10.20;;;9.20;;
703;SDS011;335;48.694;9.120;2024-01-30T16:26:39;11.67;;;9.03;;
703;SDS011;335;48.694;9.120;2024-01-30T16:29:24;9.57;;;8.63;;
703;SDS011;335;48.694;9.120;2024-01-30T16:32:09;9.40;;;8.33;;
703;SDS011;335;48.694;9.120;2024-01-30T16:34:55;11.93;;;9.97;;
703;SDS011;335;48.694;9.120;2024-01-30T16:37:41;10.60;;;9.60;;
703;SDS011;335;48.694;9.120;2024-01-30T16:40:27;9.60;;;8.80;;
703;SDS011;335;48.694;9.120;2024-01-30T16:43:12;9.73;;;8.90;;
703;SDS011;335;48.694;9.120;2024-01-30T16:45:58;9.27;;;8.47;;
703;SDS011;335;48.694;9.120;2024-01-30T16:48:43;11.60;;;9.90;;
703;SDS011;335;48.694;9.120;2024-01-30T16:51:29;9.27;;;8.47;;
703;SDS011;335;48.694;9.120;2024-01-30T16:54:14;12.43;;;9.53;;
703;SDS011;335;48.694;9.120;2024-01-30T16:56:59;10.67;;;9.50;;
703;SDS011;335;48.694;9.120;2024-01-30T16:59:46;9.07;;;8.30;;
703;SDS011;335;48.694;9.120;2024-01-30T17:02:31;11.00;;;10.00;;
703;SDS011;335;48.694;9.120;2024-01-30T17:05:17;15.83;;;12.60;;
703;SDS011;335;48.694;9.120;2024-01-30T17:08:02;15.70;;;13.03;;
703;SDS011;335;48.694;9.120;2024-01-30T17:10:48;16.37;;;12.87;;
703;SDS011;335;48.694;9.120;2024-01-30T17:13:33;11.27;;;10.13;;
703;SDS011;335;48.694;9.120;2024-01-30T17:16:18;13.37;;;9.90;;
703;SDS011;335;48.694;9.120;2024-01-30T17:19:04;12.20;;;11.00;;
703;SDS011;335;48.694;9.120;2024-01-30T17:21:49;13.47;;;11.10;;
703;SDS011;335;48.694;9.120;2024-01-30T17:24:35;13.13;;;10.23;;
703;SDS011;335;48.694;9.120;2024-01-30T17:27:20;10.73;;;9.73;;
703;SDS011;335;48.694;9.120;2024-01-30T17:30:06;12.67;;;10.77;;
703;SDS011;335;48.694;9.120;2024-01-30T17:32:52;12.73;;;10.67;;
703;SDS011;335;48.694;9.120;2024-01-30T17:35:37;14.57;;;10.90;;
703;SDS011;335;48.694;9.120;2024-01-30T17:38:22;12.13;;;10.93;;
703;SDS011;335;48.694;9.120;2024-01-30T17:41:08;12.33;;;11.00;;